createdAt,value
2018-12-25T00:03:57.759Z,3.34
2018-12-25T00:09:52.758Z,2.68
2018-12-25T00:15:47.798Z,4.38
2018-12-25T00:21:42.794Z,2.38
2018-12-25T00:27:37.785Z,2.25
2018-12-25T00:33:32.797Z,1.4
2018-12-25T00:39:27.794Z,2.61
2018-12-25T00:45:22.801Z,1.89
2018-12-25T00:51:17.830Z,1.85
2018-12-25T00:57:12.811Z,1.56
2018-12-25T01:03:07.835Z,3.6
2018-12-25T01:09:02.818Z,1.49
2018-12-25T01:14:57.821Z,3.18
2018-12-25T01:20:52.821Z,2
2018-12-25T01:26:47.876Z,2.6
2018-12-25T01:32:42.825Z,1.74
2018-12-25T01:38:37.812Z,4.85
2018-12-25T01:44:32.818Z,3.13
2018-12-25T01:50:27.820Z,1.91
2018-12-25T01:56:22.825Z,1.7
2018-12-25T02:02:17.859Z,1.98
2018-12-25T02:08:12.861Z,11.03
2018-12-25T02:14:07.833Z,2.27
2018-12-25T02:20:02.842Z,2.14
2018-12-25T02:25:57.881Z,2.84
2018-12-25T02:31:52.864Z,1.86
2018-12-25T02:37:47.856Z,1.63
2018-12-25T02:43:42.856Z,1.54
2018-12-25T02:49:37.869Z,2.88
2018-12-25T02:55:32.857Z,2.52
2018-12-25T03:01:27.858Z,1.15
2018-12-25T03:07:22.864Z,1.12
2018-12-25T03:13:17.867Z,1.66
2018-12-25T03:19:12.895Z,1.39
2018-12-25T03:25:07.883Z,3.14
2018-12-25T03:31:02.892Z,2.96
2018-12-25T03:36:57.888Z,1.68
2018-12-25T03:42:52.925Z,1.33
2018-12-25T03:48:47.905Z,1.5
2018-12-25T03:54:42.897Z,2.5
2018-12-25T04:00:37.948Z,2.04
2018-12-25T04:06:32.969Z,1.82
2018-12-25T04:12:27.916Z,5.24
2018-12-25T04:18:22.922Z,1.5
2018-12-25T04:24:17.925Z,1.11
2018-12-25T04:30:12.894Z,1.05
2018-12-25T04:36:07.942Z,0.92
2018-12-25T04:42:02.937Z,1.72
2018-12-25T04:47:57.952Z,3
2018-12-25T04:53:52.910Z,1.01
2018-12-25T04:59:47.926Z,1.3
2018-12-25T05:05:42.973Z,1.24
2018-12-25T05:11:37.935Z,1.19
2018-12-25T05:17:32.939Z,1.65
2018-12-25T05:23:27.970Z,4.02
2018-12-25T05:29:22.931Z,1.21
2018-12-25T05:35:17.946Z,1.13
2018-12-25T05:41:12.953Z,3.86
2018-12-25T05:47:07.969Z,1.05
2018-12-25T05:53:02.956Z,5.75
2018-12-25T05:58:57.968Z,1.31
2018-12-25T06:04:52.966Z,1.33
2018-12-25T06:10:47.993Z,1.13
2018-12-25T06:16:43.039Z,1.49
2018-12-25T06:22:37.958Z,1.59
2018-12-25T06:28:32.956Z,1.65
2018-12-25T06:34:27.965Z,1.97
2018-12-25T06:40:23.028Z,3.67
2018-12-25T06:46:17.971Z,2.74
2018-12-25T06:52:12.981Z,1.69
2018-12-25T06:58:07.991Z,2.01
2018-12-25T07:04:02.993Z,2.37
2018-12-25T07:09:58.009Z,3.66
2018-12-25T07:15:52.995Z,1.68
2018-12-25T07:21:48.021Z,2.42
2018-12-25T07:27:42.991Z,5.07
2018-12-25T07:33:37.992Z,2.97
2018-12-25T07:39:33.014Z,3.15
2018-12-25T07:45:27.997Z,3.13
2018-12-25T07:51:23.029Z,3.53
2018-12-25T07:57:18.071Z,3.23
2018-12-25T08:03:13.004Z,2.87
2018-12-25T08:09:08.006Z,3.04
2018-12-25T08:15:03.071Z,10.86
2018-12-25T08:20:58.012Z,17.42
2018-12-25T08:26:53.021Z,22.26
2018-12-25T08:32:48.035Z,19.92
2018-12-25T08:38:43.061Z,17.79
2018-12-25T08:44:38.044Z,16.45
2018-12-25T08:50:33.034Z,17.13
2018-12-25T08:56:28.041Z,14.26
2018-12-25T09:02:23.099Z,12.32
2018-12-25T09:08:18.046Z,7.86
2018-12-25T09:14:13.062Z,5.63
2018-12-25T09:20:08.044Z,5.4
2018-12-25T09:26:03.065Z,9.68
2018-12-25T09:31:58.102Z,9.2
2018-12-25T09:37:53.055Z,10.61
2018-12-25T09:43:48.048Z,11.66
2018-12-25T09:49:43.060Z,12.95
2018-12-25T09:55:38.086Z,20.13
2018-12-25T10:01:33.083Z,13
2018-12-25T10:07:28.073Z,12.31
2018-12-25T10:13:23.073Z,10.38
2018-12-25T10:19:18.089Z,7.61
2018-12-25T10:25:13.109Z,11.33
2018-12-25T10:31:08.094Z,7.9
2018-12-25T10:37:03.105Z,7.94
2018-12-25T10:42:58.111Z,8.27
2018-12-25T10:48:53.133Z,8.46
2018-12-25T10:54:48.171Z,6.55
2018-12-25T11:00:43.084Z,4.99
2018-12-25T11:06:38.123Z,5.35
2018-12-25T11:12:33.118Z,5.45
2018-12-25T11:18:28.130Z,6.81
2018-12-25T11:24:23.116Z,9
2018-12-25T11:30:18.123Z,8
2018-12-25T11:36:13.120Z,9.84
2018-12-25T11:42:08.127Z,8.51
2018-12-25T11:48:03.277Z,6.41
2018-12-25T11:53:58.155Z,5.24
2018-12-25T11:59:53.152Z,10.63
2018-12-25T12:05:48.137Z,8.85
2018-12-25T12:11:43.161Z,6.05
2018-12-25T12:17:38.147Z,4.76
2018-12-25T12:23:33.151Z,2.99
2018-12-25T12:29:28.169Z,3.69
2018-12-25T12:35:23.190Z,2.81
2018-12-25T12:41:18.171Z,1.55
2018-12-25T12:47:13.193Z,1.47
2018-12-25T12:53:08.159Z,2.59
2018-12-25T13:04:58.213Z,7.65
2018-12-25T13:10:53.185Z,4.42
2018-12-25T13:16:48.182Z,6.96
2018-12-25T13:22:43.255Z,2.65
2018-12-25T13:28:38.226Z,3.01
2018-12-25T13:34:33.219Z,13.82
2018-12-25T13:40:28.181Z,3.1
2018-12-25T13:46:23.209Z,2.7
2018-12-25T13:52:18.219Z,3.13
2018-12-25T13:58:13.242Z,2.26
2018-12-25T14:04:08.233Z,5.86
2018-12-25T14:10:03.218Z,3.08
2018-12-25T14:15:58.233Z,2.95
2018-12-25T14:21:53.255Z,3.82
2018-12-25T14:27:48.231Z,7.14
2018-12-25T14:33:43.240Z,7.43
2018-12-25T14:39:38.279Z,4.17
2018-12-25T14:45:33.258Z,4.94
2018-12-25T14:51:28.234Z,3.86
2018-12-25T14:57:23.246Z,8.31
2018-12-25T15:03:18.263Z,6.96
2018-12-25T15:09:13.282Z,4.68
2018-12-25T15:15:08.325Z,5.12
2018-12-25T15:21:03.266Z,6.71
2018-12-25T15:26:58.264Z,5.83
2018-12-25T15:32:53.355Z,11.06
2018-12-25T15:38:48.280Z,6.64
2018-12-25T15:44:43.268Z,9.56
2018-12-25T15:50:38.273Z,14.49
2018-12-25T15:56:33.280Z,10.3
2018-12-25T16:02:28.345Z,16.33
2018-12-25T16:08:23.328Z,43.29
2018-12-25T16:14:18.300Z,10.44
2018-12-25T16:20:13.309Z,6.92
2018-12-25T16:26:08.303Z,6.33
2018-12-25T16:32:03.319Z,7.17
2018-12-25T16:37:58.340Z,7.05
2018-12-25T16:43:53.362Z,14.15
2018-12-25T16:49:48.311Z,7.95
2018-12-25T16:55:43.337Z,17.73
2018-12-25T17:01:38.366Z,13.21
2018-12-25T17:07:33.333Z,10.04
2018-12-25T17:13:28.330Z,8.7
2018-12-25T17:19:23.327Z,19.88
2018-12-25T17:25:18.333Z,20.34
2018-12-25T17:31:13.367Z,17.56
2018-12-25T17:37:08.436Z,5.47
2018-12-25T17:43:03.348Z,9.92
2018-12-25T17:48:59.032Z,32.33
2018-12-25T17:54:53.361Z,12.77
2018-12-25T18:00:48.389Z,18.94
2018-12-25T18:06:43.355Z,10.8
2018-12-25T18:12:38.388Z,8.74
2018-12-25T18:18:33.388Z,19.87
2018-12-25T18:24:28.388Z,7.51
2018-12-25T18:30:23.356Z,22.66
2018-12-25T18:36:18.378Z,23.77
2018-12-25T18:42:13.370Z,21.3
2018-12-25T18:48:08.370Z,32.72
2018-12-25T18:54:03.399Z,8.45
2018-12-25T18:59:58.379Z,5.95
2018-12-25T19:05:53.398Z,4.68
2018-12-25T19:11:48.400Z,23.75
2018-12-25T19:17:43.407Z,16.59
2018-12-25T19:23:38.403Z,19.27
2018-12-25T19:29:33.399Z,15.71
2018-12-25T19:35:28.394Z,26.71
2018-12-25T19:41:23.410Z,27.93
2018-12-25T19:47:18.407Z,19.46
2018-12-25T19:53:13.420Z,11.9
2018-12-25T19:59:08.419Z,43.75
2018-12-25T20:05:03.440Z,37.22
2018-12-25T20:10:58.434Z,47.77
2018-12-25T20:16:53.429Z,28.13
2018-12-25T20:22:48.456Z,17.47
2018-12-25T20:28:43.431Z,29.28
2018-12-25T20:34:38.507Z,34.44
2018-12-25T20:40:33.483Z,21.04
2018-12-25T20:46:28.447Z,30.34
2018-12-25T20:52:23.481Z,19.17
2018-12-25T20:58:18.482Z,18.58
2018-12-25T21:04:13.456Z,15.49
2018-12-25T21:10:08.450Z,46.71
2018-12-25T21:16:03.467Z,10.83
2018-12-25T21:21:58.444Z,9
2018-12-25T21:27:53.470Z,10.08
2018-12-25T21:33:48.456Z,7.9
2018-12-25T21:39:43.458Z,6.69
2018-12-25T21:45:38.460Z,4.99
2018-12-25T21:51:33.470Z,6.86
2018-12-25T21:57:28.486Z,7.98
2018-12-25T22:03:23.502Z,13.1
2018-12-25T22:09:18.492Z,8.38
2018-12-25T22:15:13.501Z,9.07
2018-12-25T22:21:08.526Z,7.23
2018-12-25T22:27:03.482Z,4.75
2018-12-25T22:32:58.484Z,8.09
2018-12-25T22:38:53.512Z,6.4
2018-12-25T22:44:48.484Z,5.7
2018-12-25T22:50:43.523Z,9
2018-12-25T22:56:38.535Z,6.94
2018-12-25T23:02:33.497Z,6.41
2018-12-25T23:08:28.511Z,6.12
2018-12-25T23:14:23.517Z,6.13
2018-12-25T23:20:18.506Z,4.46
2018-12-25T23:26:13.547Z,11.9
2018-12-25T23:32:08.501Z,13
2018-12-25T23:38:03.540Z,12.91
2018-12-25T23:43:58.501Z,12.61
2018-12-25T23:49:53.507Z,8.95
2018-12-25T23:55:52.873Z,7.52
